map of KLW home
KLW - Airport
Location
City:  Klawock, Alaska, United States
ICAO:PAKW
IATA:KLW
FAA LID:AKW

Details
Type:Airport (Airfield)
Use:Public/Civil
Latitude:5534'45"N (55.579222)
Longitude:13304'34"W (-133.075999)
Datum:WGS 1984
Elevation:79 ft (24 m)
Variation:18.43E (WMM2015v2 magnetic declination)
-0.18 annual change
Runways:1
Longest:5000 × 100 ft (1524 × 30.5 m), paved

Time
Time Zone:UTC-9 (DST-8)
Local Time:

Weather
METAR:PAKW 041353Z AUTO 00000KT 10SM FEW030 OVC038 M06/M09 A3013 RMK AO2 SLP203 T10561094 TSNO
TAF:PAKW 041122Z 0412/0512 04003KT P6SM OVC050
FM042200 04003KT P6SM VCSH BKN030 OVC040
FM050000 05005KT 4SM -SHSN OVC025
FM050400 04008KT P6SM SCT025 BKN035
AMD LTD TO CLD VIS AND WIND

Related Locations
Nearby:
Farthest:AFD: 10633 mi / 17112 km
Port Alfred, EC, ZA

Find:

   beyond  
but within

Other Information
Maps:
NOTAMs:
Links:
Sources:

  
  • flag of United States
  • flag of Alaska
  

Sectional Chart

Flight Planning
at skyvector.com

Satellite Image

Google Maps Satellite view

 

Copyright © 2004-2019 Karl L. Swartz. All rights reserved.
The Great Circle Mapper name and logo are trademarks of the Great Circle Mapper.
All other trademarks mentioned herein belong to their respective owners.
Please see credits for attibutions and further copyright information.

  Follow gcmap on Facebook Follow gcmap on Twitter GCmap on LinkedIn

hCard Microformat

Geo Microformat